sensor_id;sensor_type;location;lat;lon;timestamp;temperature;humidity
28189;DHT22;15471;51.166;4.470;2023-03-24T00:01:05;12.30;99.90
28189;DHT22;15471;51.166;4.470;2023-03-24T00:03:32;12.30;99.90
28189;DHT22;15471;51.166;4.470;2023-03-24T00:06:00;12.40;99.90
28189;DHT22;15471;51.166;4.470;2023-03-24T00:08:28;12.40;99.90
28189;DHT22;15471;51.166;4.470;2023-03-24T00:11:01;12.40;99.90
28189;DHT22;15471;51.166;4.470;2023-03-24T00:13:30;12.40;99.90
28189;DHT22;15471;51.166;4.470;2023-03-24T00:15:57;12.40;99.90
28189;DHT22;15471;51.166;4.470;2023-03-24T00:18:24;12.40;99.90
28189;DHT22;15471;51.166;4.470;2023-03-24T00:20:55;12.40;99.90
28189;DHT22;15471;51.166;4.470;2023-03-24T00:23:28;12.40;99.90
28189;DHT22;15471;51.166;4.470;2023-03-24T00:26:12;12.40;99.90
28189;DHT22;15471;51.166;4.470;2023-03-24T00:28:46;12.40;99.90
28189;DHT22;15471;51.166;4.470;2023-03-24T00:31:15;12.40;99.90
28189;DHT22;15471;51.166;4.470;2023-03-24T00:33:42;12.40;99.90
28189;DHT22;15471;51.166;4.470;2023-03-24T00:36:10;12.30;99.90
28189;DHT22;15471;51.166;4.470;2023-03-24T00:38:38;12.30;99.90
28189;DHT22;15471;51.166;4.470;2023-03-24T00:41:06;12.30;99.90
28189;DHT22;15471;51.166;4.470;2023-03-24T00:43:33;12.30;99.90
28189;DHT22;15471;51.166;4.470;2023-03-24T00:46:00;12.30;99.90
28189;DHT22;15471;51.166;4.470;2023-03-24T00:48:29;12.30;99.90
28189;DHT22;15471;51.166;4.470;2023-03-24T00:50:55;12.30;99.90
28189;DHT22;15471;51.166;4.470;2023-03-24T00:53:22;12.30;99.90
28189;DHT22;15471;51.166;4.470;2023-03-24T00:55:54;12.30;99.90
28189;DHT22;15471;51.166;4.470;2023-03-24T00:58:21;12.30;99.90
28189;DHT22;15471;51.166;4.470;2023-03-24T01:00:50;12.20;99.90
28189;DHT22;15471;51.166;4.470;2023-03-24T01:03:17;12.30;99.90
28189;DHT22;15471;51.166;4.470;2023-03-24T01:05:48;12.30;99.90
28189;DHT22;15471;51.166;4.470;2023-03-24T01:08:15;12.30;99.90
28189;DHT22;15471;51.166;4.470;2023-03-24T01:10:47;12.30;99.90
28189;DHT22;15471;51.166;4.470;2023-03-24T01:13:23;12.30;99.90
28189;DHT22;15471;51.166;4.470;2023-03-24T01:15:51;12.30;99.90
28189;DHT22;15471;51.166;4.470;2023-03-24T01:18:17;12.40;99.90
28189;DHT22;15471;51.166;4.470;2023-03-24T01:20:45;12.40;99.90
28189;DHT22;15471;51.166;4.470;2023-03-24T01:23:13;12.40;99.90
28189;DHT22;15471;51.166;4.470;2023-03-24T01:25:40;12.40;99.90
28189;DHT22;15471;51.166;4.470;2023-03-24T01:28:16;12.40;99.90
28189;DHT22;15471;51.166;4.470;2023-03-24T01:30:43;12.40;99.90
28189;DHT22;15471;51.166;4.470;2023-03-24T01:33:10;12.40;99.90
28189;DHT22;15471;51.166;4.470;2023-03-24T01:35:36;12.40;99.90
28189;DHT22;15471;51.166;4.470;2023-03-24T01:38:08;12.40;99.90
28189;DHT22;15471;51.166;4.470;2023-03-24T01:40:36;12.30;99.90
28189;DHT22;15471;51.166;4.470;2023-03-24T01:43:04;12.20;99.90
28189;DHT22;15471;51.166;4.470;2023-03-24T01:48:08;12.30;99.90
28189;DHT22;15471;51.166;4.470;2023-03-24T01:50:36;12.30;99.90
28189;DHT22;15471;51.166;4.470;2023-03-24T01:53:04;12.40;99.90
28189;DHT22;15471;51.166;4.470;2023-03-24T01:55:32;12.40;99.90
28189;DHT22;15471;51.166;4.470;2023-03-24T01:58:00;12.30;99.90
28189;DHT22;15471;51.166;4.470;2023-03-24T02:00:35;12.30;99.90
28189;DHT22;15471;51.166;4.470;2023-03-24T02:03:22;12.40;99.90
28189;DHT22;15471;51.166;4.470;2023-03-24T02:05:54;12.40;99.90
28189;DHT22;15471;51.166;4.470;2023-03-24T02:08:47;12.40;99.90
28189;DHT22;15471;51.166;4.470;2023-03-24T02:11:15;12.30;99.90
28189;DHT22;15471;51.166;4.470;2023-03-24T02:13:52;12.40;99.90
28189;DHT22;15471;51.166;4.470;2023-03-24T02:36:14;11.90;99.90
28189;DHT22;15471;51.166;4.470;2023-03-24T02:41:50;11.70;99.90
28189;DHT22;15471;51.166;4.470;2023-03-24T02:55:27;11.20;99.90
28189;DHT22;15471;51.166;4.470;2023-03-24T02:58:02;11.10;99.90
28189;DHT22;15471;51.166;4.470;2023-03-24T03:00:49;11.00;99.90
28189;DHT22;15471;51.166;4.470;2023-03-24T03:03:47;10.90;99.90
28189;DHT22;15471;51.166;4.470;2023-03-24T03:06:22;10.90;99.90
28189;DHT22;15471;51.166;4.470;2023-03-24T03:08:51;10.90;99.90
28189;DHT22;15471;51.166;4.470;2023-03-24T03:11:17;10.90;99.90
28189;DHT22;15471;51.166;4.470;2023-03-24T03:16:47;10.80;99.90
28189;DHT22;15471;51.166;4.470;2023-03-24T03:19:23;10.80;99.90
28189;DHT22;15471;51.166;4.470;2023-03-24T03:21:52;10.80;99.90
28189;DHT22;15471;51.166;4.470;2023-03-24T03:24:23;10.80;99.90
28189;DHT22;15471;51.166;4.470;2023-03-24T03:27:21;10.80;99.90
28189;DHT22;15471;51.166;4.470;2023-03-24T03:30:04;10.90;99.90
28189;DHT22;15471;51.166;4.470;2023-03-24T03:32:37;11.00;99.90
28189;DHT22;15471;51.166;4.470;2023-03-24T03:35:19;11.00;99.90
28189;DHT22;15471;51.166;4.470;2023-03-24T03:38:06;11.00;99.90
28189;DHT22;15471;51.166;4.470;2023-03-24T03:40:55;11.00;99.90
28189;DHT22;15471;51.166;4.470;2023-03-24T03:43:26;11.10;99.90
28189;DHT22;15471;51.166;4.470;2023-03-24T03:45:54;11.20;99.90
28189;DHT22;15471;51.166;4.470;2023-03-24T03:48:26;10.90;99.90
28189;DHT22;15471;51.166;4.470;2023-03-24T03:50:54;11.00;99.90
28189;DHT22;15471;51.166;4.470;2023-03-24T03:53:27;11.00;99.90
28189;DHT22;15471;51.166;4.470;2023-03-24T03:55:56;11.00;99.90
28189;DHT22;15471;51.166;4.470;2023-03-24T03:58:24;10.90;99.90
28189;DHT22;15471;51.166;4.470;2023-03-24T04:00:56;10.90;99.90
28189;DHT22;15471;51.166;4.470;2023-03-24T04:04:01;11.00;99.90
28189;DHT22;15471;51.166;4.470;2023-03-24T04:15:57;11.00;99.90
28189;DHT22;15471;51.166;4.470;2023-03-24T04:21:26;10.90;99.90
28189;DHT22;15471;51.166;4.470;2023-03-24T04:27:05;11.00;99.90
28189;DHT22;15471;51.166;4.470;2023-03-24T05:23:49;10.30;99.90
28189;DHT22;15471;51.166;4.470;2023-03-24T05:26:16;10.30;99.90
28189;DHT22;15471;51.166;4.470;2023-03-24T05:29:03;10.40;99.90
28189;DHT22;15471;51.166;4.470;2023-03-24T05:31:32;10.30;99.90
28189;DHT22;15471;51.166;4.470;2023-03-24T05:34:20;10.20;99.90
28189;DHT22;15471;51.166;4.470;2023-03-24T05:36:53;10.20;99.90
28189;DHT22;15471;51.166;4.470;2023-03-24T05:39:21;10.10;99.90
28189;DHT22;15471;51.166;4.470;2023-03-24T05:42:03;10.00;99.90
28189;DHT22;15471;51.166;4.470;2023-03-24T05:47:11;9.90;99.90
28189;DHT22;15471;51.166;4.470;2023-03-24T05:50:01;10.00;99.90
28189;DHT22;15471;51.166;4.470;2023-03-24T05:55:22;10.20;99.90
28189;DHT22;15471;51.166;4.470;2023-03-24T05:58:03;10.20;99.90
28189;DHT22;15471;51.166;4.470;2023-03-24T06:00:42;10.30;99.90
28189;DHT22;15471;51.166;4.470;2023-03-24T06:06:07;10.20;99.90
28189;DHT22;15471;51.166;4.470;2023-03-24T06:08:35;10.00;99.90
28189;DHT22;15471;51.166;4.470;2023-03-24T06:11:03;9.90;99.90
28189;DHT22;15471;51.166;4.470;2023-03-24T06:13:40;10.00;99.90
28189;DHT22;15471;51.166;4.470;2023-03-24T06:16:12;10.00;99.90
28189;DHT22;15471;51.166;4.470;2023-03-24T06:18:48;10.00;99.90
28189;DHT22;15471;51.166;4.470;2023-03-24T06:21:39;10.00;99.90
28189;DHT22;15471;51.166;4.470;2023-03-24T06:24:22;10.00;99.90
28189;DHT22;15471;51.166;4.470;2023-03-24T06:26:54;10.10;99.90
28189;DHT22;15471;51.166;4.470;2023-03-24T06:30:05;10.10;99.90
28189;DHT22;15471;51.166;4.470;2023-03-24T06:32:39;10.10;99.90
28189;DHT22;15471;51.166;4.470;2023-03-24T06:35:23;10.10;99.90
28189;DHT22;15471;51.166;4.470;2023-03-24T06:44:07;10.20;99.90
28189;DHT22;15471;51.166;4.470;2023-03-24T07:36:07;11.70;99.90
28189;DHT22;15471;51.166;4.470;2023-03-24T07:38:41;11.90;99.90
28189;DHT22;15471;51.166;4.470;2023-03-24T07:41:14;12.00;99.90
28189;DHT22;15471;51.166;4.470;2023-03-24T07:43:56;12.00;99.90
28189;DHT22;15471;51.166;4.470;2023-03-24T07:46:30;12.00;99.90
28189;DHT22;15471;51.166;4.470;2023-03-24T07:49:00;12.10;99.90
28189;DHT22;15471;51.166;4.470;2023-03-24T07:51:29;12.20;99.90
28189;DHT22;15471;51.166;4.470;2023-03-24T07:54:10;12.40;99.90
28189;DHT22;15471;51.166;4.470;2023-03-24T07:56:45;12.40;99.90
28189;DHT22;15471;51.166;4.470;2023-03-24T07:59:16;12.40;99.90
28189;DHT22;15471;51.166;4.470;2023-03-24T08:01:51;12.40;99.90
28189;DHT22;15471;51.166;4.470;2023-03-24T08:04:30;12.40;99.90
28189;DHT22;15471;51.166;4.470;2023-03-24T08:07:07;12.40;99.90
28189;DHT22;15471;51.166;4.470;2023-03-24T08:09:36;12.50;99.90
28189;DHT22;15471;51.166;4.470;2023-03-24T08:12:04;12.40;99.90
28189;DHT22;15471;51.166;4.470;2023-03-24T08:14:32;12.40;99.90
28189;DHT22;15471;51.166;4.470;2023-03-24T08:16:58;12.40;99.90
28189;DHT22;15471;51.166;4.470;2023-03-24T08:19:27;12.40;99.90
28189;DHT22;15471;51.166;4.470;2023-03-24T08:21:54;12.40;99.90
28189;DHT22;15471;51.166;4.470;2023-03-24T08:24:21;12.30;99.90
28189;DHT22;15471;51.166;4.470;2023-03-24T08:26:47;12.40;99.90
28189;DHT22;15471;51.166;4.470;2023-03-24T08:29:14;12.40;99.90
28189;DHT22;15471;51.166;4.470;2023-03-24T08:31:40;12.60;99.90
28189;DHT22;15471;51.166;4.470;2023-03-24T08:34:08;12.60;99.90
28189;DHT22;15471;51.166;4.470;2023-03-24T08:36:36;12.50;99.90
28189;DHT22;15471;51.166;4.470;2023-03-24T08:39:03;12.50;99.90
28189;DHT22;15471;51.166;4.470;2023-03-24T08:41:37;12.50;99.90
28189;DHT22;15471;51.166;4.470;2023-03-24T08:44:04;12.50;99.90
28189;DHT22;15471;51.166;4.470;2023-03-24T08:46:32;12.70;99.90
28189;DHT22;15471;51.166;4.470;2023-03-24T08:48:59;12.80;99.90
28189;DHT22;15471;51.166;4.470;2023-03-24T08:51:28;13.10;99.90
28189;DHT22;15471;51.166;4.470;2023-03-24T08:53:54;13.30;99.90
28189;DHT22;15471;51.166;4.470;2023-03-24T08:56:24;13.50;99.90
28189;DHT22;15471;51.166;4.470;2023-03-24T08:58:51;13.50;99.90
28189;DHT22;15471;51.166;4.470;2023-03-24T09:01:20;13.40;99.90
28189;DHT22;15471;51.166;4.470;2023-03-24T09:03:53;13.20;99.90
28189;DHT22;15471;51.166;4.470;2023-03-24T09:06:19;13.30;99.90
28189;DHT22;15471;51.166;4.470;2023-03-24T09:08:46;13.10;99.90
28189;DHT22;15471;51.166;4.470;2023-03-24T09:11:17;13.20;99.90
28189;DHT22;15471;51.166;4.470;2023-03-24T09:13:43;13.10;99.90
28189;DHT22;15471;51.166;4.470;2023-03-24T09:16:10;13.20;99.90
28189;DHT22;15471;51.166;4.470;2023-03-24T09:18:39;13.40;99.90
28189;DHT22;15471;51.166;4.470;2023-03-24T09:21:06;13.60;99.90
28189;DHT22;15471;51.166;4.470;2023-03-24T09:23:33;13.90;99.90
28189;DHT22;15471;51.166;4.470;2023-03-24T09:26:00;14.00;99.90
28189;DHT22;15471;51.166;4.470;2023-03-24T09:28:26;14.00;99.90
28189;DHT22;15471;51.166;4.470;2023-03-24T09:30:58;13.80;99.90
28189;DHT22;15471;51.166;4.470;2023-03-24T09:33:24;13.70;99.90
28189;DHT22;15471;51.166;4.470;2023-03-24T09:35:58;13.40;99.90
28189;DHT22;15471;51.166;4.470;2023-03-24T09:38:25;13.50;99.90
28189;DHT22;15471;51.166;4.470;2023-03-24T09:40:57;13.90;99.90
28189;DHT22;15471;51.166;4.470;2023-03-24T09:43:45;13.80;99.90
28189;DHT22;15471;51.166;4.470;2023-03-24T09:46:41;13.80;99.90
28189;DHT22;15471;51.166;4.470;2023-03-24T09:49:12;14.20;99.90
28189;DHT22;15471;51.166;4.470;2023-03-24T09:51:49;14.20;99.90
28189;DHT22;15471;51.166;4.470;2023-03-24T09:56:48;14.30;99.90
28189;DHT22;15471;51.166;4.470;2023-03-24T09:59:18;14.40;99.90
28189;DHT22;15471;51.166;4.470;2023-03-24T10:01:45;14.60;99.90
28189;DHT22;15471;51.166;4.470;2023-03-24T10:04:20;14.90;99.90
28189;DHT22;15471;51.166;4.470;2023-03-24T10:06:48;15.00;99.90
28189;DHT22;15471;51.166;4.470;2023-03-24T10:09:33;14.80;99.90
28189;DHT22;15471;51.166;4.470;2023-03-24T10:21:13;14.90;99.90
28189;DHT22;15471;51.166;4.470;2023-03-24T10:24:14;14.90;99.90
28189;DHT22;15471;51.166;4.470;2023-03-24T10:27:33;14.80;99.90
28189;DHT22;15471;51.166;4.470;2023-03-24T10:29:35;14.70;99.90
28189;DHT22;15471;51.166;4.470;2023-03-24T10:34:37;14.30;99.90
28189;DHT22;15471;51.166;4.470;2023-03-24T10:37:03;14.40;99.90
28189;DHT22;15471;51.166;4.470;2023-03-24T10:39:30;14.50;99.90
28189;DHT22;15471;51.166;4.470;2023-03-24T10:41:58;14.40;99.90
28189;DHT22;15471;51.166;4.470;2023-03-24T10:44:26;14.50;99.90
28189;DHT22;15471;51.166;4.470;2023-03-24T10:46:54;14.30;99.90
28189;DHT22;15471;51.166;4.470;2023-03-24T10:49:22;14.10;99.90
28189;DHT22;15471;51.166;4.470;2023-03-24T10:51:51;14.00;99.90
28189;DHT22;15471;51.166;4.470;2023-03-24T10:54:24;13.80;99.90
28189;DHT22;15471;51.166;4.470;2023-03-24T10:59:35;12.60;99.90
28189;DHT22;15471;51.166;4.470;2023-03-24T11:02:17;12.00;99.90
28189;DHT22;15471;51.166;4.470;2023-03-24T11:07:38;11.10;99.90
28189;DHT22;15471;51.166;4.470;2023-03-24T11:12:38;11.20;99.90
28189;DHT22;15471;51.166;4.470;2023-03-24T11:15:19;11.20;99.90
28189;DHT22;15471;51.166;4.470;2023-03-24T11:17:55;11.40;99.90
28189;DHT22;15471;51.166;4.470;2023-03-24T11:20:33;11.50;99.90
28189;DHT22;15471;51.166;4.470;2023-03-24T11:23:07;11.60;99.90
28189;DHT22;15471;51.166;4.470;2023-03-24T11:25:36;11.60;99.90
28189;DHT22;15471;51.166;4.470;2023-03-24T11:28:15;11.60;99.90
28189;DHT22;15471;51.166;4.470;2023-03-24T11:30:54;11.40;99.90
28189;DHT22;15471;51.166;4.470;2023-03-24T11:33:29;11.40;99.90
28189;DHT22;15471;51.166;4.470;2023-03-24T11:39:14;11.40;99.90
28189;DHT22;15471;51.166;4.470;2023-03-24T11:41:58;11.20;99.90
28189;DHT22;15471;51.166;4.470;2023-03-24T11:52:44;10.90;99.90
28189;DHT22;15471;51.166;4.470;2023-03-24T11:55:24;11.00;99.90
28189;DHT22;15471;51.166;4.470;2023-03-24T11:58:07;11.30;99.90
28189;DHT22;15471;51.166;4.470;2023-03-24T12:00:41;11.30;99.90
28189;DHT22;15471;51.166;4.470;2023-03-24T12:03:22;11.30;99.90
28189;DHT22;15471;51.166;4.470;2023-03-24T12:06:11;11.40;99.90
28189;DHT22;15471;51.166;4.470;2023-03-24T12:12:00;11.80;99.90
28189;DHT22;15471;51.166;4.470;2023-03-24T12:17:27;12.20;99.90
28189;DHT22;15471;51.166;4.470;2023-03-24T12:30:40;12.70;99.90
28189;DHT22;15471;51.166;4.470;2023-03-24T12:36:12;13.40;99.90
28189;DHT22;15471;51.166;4.470;2023-03-24T12:41:44;13.70;99.90
28189;DHT22;15471;51.166;4.470;2023-03-24T12:52:40;13.50;99.90
28189;DHT22;15471;51.166;4.470;2023-03-24T12:55:17;13.40;99.90
28189;DHT22;15471;51.166;4.470;2023-03-24T12:57:49;13.50;99.90
28189;DHT22;15471;51.166;4.470;2023-03-24T13:00:24;13.50;99.90
28189;DHT22;15471;51.166;4.470;2023-03-24T13:03:02;13.50;99.90
28189;DHT22;15471;51.166;4.470;2023-03-24T13:05:31;13.80;99.90
28189;DHT22;15471;51.166;4.470;2023-03-24T13:08:05;14.00;99.90
28189;DHT22;15471;51.166;4.470;2023-03-24T13:10:36;14.00;99.90
28189;DHT22;15471;51.166;4.470;2023-03-24T13:13:27;14.10;99.90
28189;DHT22;15471;51.166;4.470;2023-03-24T13:16:01;14.20;99.90
28189;DHT22;15471;51.166;4.470;2023-03-24T13:18:39;14.40;99.90
28189;DHT22;15471;51.166;4.470;2023-03-24T13:21:22;14.50;99.90
28189;DHT22;15471;51.166;4.470;2023-03-24T13:27:05;14.60;99.90
28189;DHT22;15471;51.166;4.470;2023-03-24T13:29:41;14.80;99.90
28189;DHT22;15471;51.166;4.470;2023-03-24T13:35:17;14.30;99.90
28189;DHT22;15471;51.166;4.470;2023-03-24T13:38:01;14.30;99.90
28189;DHT22;15471;51.166;4.470;2023-03-24T13:40:31;14.20;99.90
28189;DHT22;15471;51.166;4.470;2023-03-24T13:43:10;14.10;99.90
28189;DHT22;15471;51.166;4.470;2023-03-24T13:45:49;14.40;99.90
28189;DHT22;15471;51.166;4.470;2023-03-24T13:51:01;14.30;99.90
28189;DHT22;15471;51.166;4.470;2023-03-24T13:56:00;14.50;99.90
28189;DHT22;15471;51.166;4.470;2023-03-24T13:58:44;14.60;99.90
28189;DHT22;15471;51.166;4.470;2023-03-24T14:03:42;14.60;99.90
28189;DHT22;15471;51.166;4.470;2023-03-24T14:06:51;14.70;99.90
28189;DHT22;15471;51.166;4.470;2023-03-24T14:12:15;14.40;99.90
28189;DHT22;15471;51.166;4.470;2023-03-24T14:15:28;14.30;99.90
28189;DHT22;15471;51.166;4.470;2023-03-24T14:17:49;14.20;99.90
28189;DHT22;15471;51.166;4.470;2023-03-24T14:20:35;14.60;99.90
28189;DHT22;15471;51.166;4.470;2023-03-24T14:23:03;14.80;99.90
28189;DHT22;15471;51.166;4.470;2023-03-24T14:25:31;14.90;99.90
28189;DHT22;15471;51.166;4.470;2023-03-24T14:28:17;14.70;99.90
28189;DHT22;15471;51.166;4.470;2023-03-24T14:31:00;14.30;99.90
28189;DHT22;15471;51.166;4.470;2023-03-24T14:33:28;14.00;99.90
28189;DHT22;15471;51.166;4.470;2023-03-24T14:36:01;13.70;99.90
28189;DHT22;15471;51.166;4.470;2023-03-24T14:38:40;13.60;99.90
28189;DHT22;15471;51.166;4.470;2023-03-24T14:41:27;13.50;99.90
28189;DHT22;15471;51.166;4.470;2023-03-24T14:43:56;13.50;99.90
28189;DHT22;15471;51.166;4.470;2023-03-24T14:49:26;13.50;99.90
28189;DHT22;15471;51.166;4.470;2023-03-24T14:52:15;13.40;99.90
28189;DHT22;15471;51.166;4.470;2023-03-24T14:54:53;13.40;99.90
28189;DHT22;15471;51.166;4.470;2023-03-24T14:57:33;13.40;99.90
28189;DHT22;15471;51.166;4.470;2023-03-24T15:03:09;13.30;99.90
28189;DHT22;15471;51.166;4.470;2023-03-24T15:08:33;13.10;99.90
28189;DHT22;15471;51.166;4.470;2023-03-24T15:13:40;13.10;99.90
28189;DHT22;15471;51.166;4.470;2023-03-24T15:19:03;13.30;99.90
28189;DHT22;15471;51.166;4.470;2023-03-24T15:21:37;13.60;99.90
28189;DHT22;15471;51.166;4.470;2023-03-24T15:24:27;13.90;99.90
28189;DHT22;15471;51.166;4.470;2023-03-24T15:29:40;14.20;99.90
28189;DHT22;15471;51.166;4.470;2023-03-24T15:32:11;14.40;99.90
28189;DHT22;15471;51.166;4.470;2023-03-24T15:34:41;14.60;99.90
28189;DHT22;15471;51.166;4.470;2023-03-24T15:37:38;14.90;99.90
28189;DHT22;15471;51.166;4.470;2023-03-24T15:40:29;15.20;99.90
28189;DHT22;15471;51.166;4.470;2023-03-24T15:42:56;15.10;99.90
28189;DHT22;15471;51.166;4.470;2023-03-24T15:45:35;15.30;99.90
28189;DHT22;15471;51.166;4.470;2023-03-24T15:48:17;15.50;99.90
28189;DHT22;15471;51.166;4.470;2023-03-24T15:50:58;15.30;99.90
28189;DHT22;15471;51.166;4.470;2023-03-24T16:09:44;14.90;99.90
28189;DHT22;15471;51.166;4.470;2023-03-24T16:19:00;15.20;99.90
28189;DHT22;15471;51.166;4.470;2023-03-24T16:21:28;15.30;99.90
28189;DHT22;15471;51.166;4.470;2023-03-24T16:24:00;15.30;99.90
28189;DHT22;15471;51.166;4.470;2023-03-24T16:26:45;15.20;99.90
28189;DHT22;15471;51.166;4.470;2023-03-24T16:29:23;15.00;99.90
28189;DHT22;15471;51.166;4.470;2023-03-24T16:31:55;14.90;99.90
28189;DHT22;15471;51.166;4.470;2023-03-24T16:34:30;14.80;99.90
28189;DHT22;15471;51.166;4.470;2023-03-24T16:38:00;14.60;99.90
28189;DHT22;15471;51.166;4.470;2023-03-24T16:40:43;14.40;99.90
28189;DHT22;15471;51.166;4.470;2023-03-24T16:43:17;14.30;99.90
28189;DHT22;15471;51.166;4.470;2023-03-24T16:45:49;14.20;99.90
28189;DHT22;15471;51.166;4.470;2023-03-24T16:48:24;13.90;99.90
28189;DHT22;15471;51.166;4.470;2023-03-24T16:50:51;13.80;99.90
28189;DHT22;15471;51.166;4.470;2023-03-24T16:53:20;13.70;99.90
28189;DHT22;15471;51.166;4.470;2023-03-24T16:55:46;13.50;99.90
28189;DHT22;15471;51.166;4.470;2023-03-24T16:58:14;13.50;99.90
28189;DHT22;15471;51.166;4.470;2023-03-24T17:00:47;13.40;99.90
28189;DHT22;15471;51.166;4.470;2023-03-24T17:03:22;13.10;99.90
28189;DHT22;15471;51.166;4.470;2023-03-24T17:06:16;12.80;99.90
28189;DHT22;15471;51.166;4.470;2023-03-24T17:08:42;12.80;99.90
28189;DHT22;15471;51.166;4.470;2023-03-24T17:11:08;12.70;99.90
28189;DHT22;15471;51.166;4.470;2023-03-24T17:13:34;12.60;99.90
28189;DHT22;15471;51.166;4.470;2023-03-24T17:16:02;12.50;99.90
28189;DHT22;15471;51.166;4.470;2023-03-24T17:18:28;12.40;99.90
28189;DHT22;15471;51.166;4.470;2023-03-24T17:20:54;12.50;99.90
28189;DHT22;15471;51.166;4.470;2023-03-24T17:23:21;12.40;99.90
28189;DHT22;15471;51.166;4.470;2023-03-24T17:25:46;12.50;99.90
28189;DHT22;15471;51.166;4.470;2023-03-24T17:28:16;12.50;99.90
28189;DHT22;15471;51.166;4.470;2023-03-24T17:30:42;12.50;99.90
28189;DHT22;15471;51.166;4.470;2023-03-24T17:33:12;12.50;99.90
28189;DHT22;15471;51.166;4.470;2023-03-24T17:35:38;12.50;99.90
28189;DHT22;15471;51.166;4.470;2023-03-24T17:38:04;12.30;99.90
28189;DHT22;15471;51.166;4.470;2023-03-24T17:40:30;12.00;99.90
28189;DHT22;15471;51.166;4.470;2023-03-24T17:42:56;11.80;99.90
28189;DHT22;15471;51.166;4.470;2023-03-24T17:45:21;11.70;99.90
28189;DHT22;15471;51.166;4.470;2023-03-24T17:47:47;11.70;99.90
28189;DHT22;15471;51.166;4.470;2023-03-24T17:50:13;11.60;99.90
28189;DHT22;15471;51.166;4.470;2023-03-24T17:52:45;11.60;99.90
28189;DHT22;15471;51.166;4.470;2023-03-24T17:55:13;11.60;99.90
28189;DHT22;15471;51.166;4.470;2023-03-24T17:57:40;11.60;99.90
28189;DHT22;15471;51.166;4.470;2023-03-24T18:00:07;11.60;99.90
28189;DHT22;15471;51.166;4.470;2023-03-24T18:02:36;11.50;99.90
28189;DHT22;15471;51.166;4.470;2023-03-24T18:05:02;11.50;99.90
28189;DHT22;15471;51.166;4.470;2023-03-24T18:07:28;11.50;99.90
28189;DHT22;15471;51.166;4.470;2023-03-24T18:09:57;11.40;99.90
28189;DHT22;15471;51.166;4.470;2023-03-24T18:12:23;11.40;99.90
28189;DHT22;15471;51.166;4.470;2023-03-24T18:14:59;11.30;99.90
28189;DHT22;15471;51.166;4.470;2023-03-24T18:17:25;11.30;99.90
28189;DHT22;15471;51.166;4.470;2023-03-24T18:19:51;11.20;99.90
28189;DHT22;15471;51.166;4.470;2023-03-24T18:22:17;11.10;99.90
28189;DHT22;15471;51.166;4.470;2023-03-24T18:24:43;11.00;99.90
28189;DHT22;15471;51.166;4.470;2023-03-24T18:27:09;11.00;99.90
28189;DHT22;15471;51.166;4.470;2023-03-24T18:29:36;11.00;99.90
28189;DHT22;15471;51.166;4.470;2023-03-24T18:32:03;10.90;99.90
28189;DHT22;15471;51.166;4.470;2023-03-24T18:34:31;10.80;99.90
28189;DHT22;15471;51.166;4.470;2023-03-24T18:36:57;10.70;99.90
28189;DHT22;15471;51.166;4.470;2023-03-24T18:39:23;10.70;99.90
28189;DHT22;15471;51.166;4.470;2023-03-24T18:41:49;10.70;99.90
28189;DHT22;15471;51.166;4.470;2023-03-24T18:44:15;10.60;99.90
28189;DHT22;15471;51.166;4.470;2023-03-24T18:46:43;10.60;99.90
28189;DHT22;15471;51.166;4.470;2023-03-24T18:49:13;10.50;99.90
28189;DHT22;15471;51.166;4.470;2023-03-24T18:51:42;10.50;99.90
28189;DHT22;15471;51.166;4.470;2023-03-24T18:54:10;10.40;99.90
28189;DHT22;15471;51.166;4.470;2023-03-24T18:56:37;10.50;99.90
28189;DHT22;15471;51.166;4.470;2023-03-24T18:59:02;10.40;99.90
28189;DHT22;15471;51.166;4.470;2023-03-24T19:01:28;10.30;99.90
28189;DHT22;15471;51.166;4.470;2023-03-24T19:03:55;10.30;99.90
28189;DHT22;15471;51.166;4.470;2023-03-24T19:06:21;10.20;99.90
28189;DHT22;15471;51.166;4.470;2023-03-24T19:08:51;10.20;99.90
28189;DHT22;15471;51.166;4.470;2023-03-24T19:11:17;10.30;99.90
28189;DHT22;15471;51.166;4.470;2023-03-24T19:13:43;10.30;99.90
28189;DHT22;15471;51.166;4.470;2023-03-24T19:16:11;10.40;99.90
28189;DHT22;15471;51.166;4.470;2023-03-24T19:18:38;10.40;99.90
28189;DHT22;15471;51.166;4.470;2023-03-24T19:21:04;10.40;99.90
28189;DHT22;15471;51.166;4.470;2023-03-24T19:23:31;10.40;99.90
28189;DHT22;15471;51.166;4.470;2023-03-24T19:25:57;10.50;99.90
28189;DHT22;15471;51.166;4.470;2023-03-24T19:28:34;10.50;99.90
28189;DHT22;15471;51.166;4.470;2023-03-24T19:33:54;10.50;99.90
28189;DHT22;15471;51.166;4.470;2023-03-24T19:36:20;10.30;99.90
28189;DHT22;15471;51.166;4.470;2023-03-24T19:38:46;10.30;99.90
28189;DHT22;15471;51.166;4.470;2023-03-24T19:41:13;10.20;99.90
28189;DHT22;15471;51.166;4.470;2023-03-24T19:43:39;10.30;99.90
28189;DHT22;15471;51.166;4.470;2023-03-24T19:46:06;10.30;99.90
28189;DHT22;15471;51.166;4.470;2023-03-24T19:48:33;10.20;99.90
28189;DHT22;15471;51.166;4.470;2023-03-24T19:50:59;10.30;99.90
28189;DHT22;15471;51.166;4.470;2023-03-24T19:53:25;10.30;99.90
28189;DHT22;15471;51.166;4.470;2023-03-24T19:55:55;10.30;99.90
28189;DHT22;15471;51.166;4.470;2023-03-24T19:58:21;10.30;99.90
28189;DHT22;15471;51.166;4.470;2023-03-24T20:00:47;10.30;99.90
28189;DHT22;15471;51.166;4.470;2023-03-24T20:03:13;10.40;99.90
28189;DHT22;15471;51.166;4.470;2023-03-24T20:05:48;10.50;99.90
28189;DHT22;15471;51.166;4.470;2023-03-24T20:19:16;9.90;99.90
28189;DHT22;15471;51.166;4.470;2023-03-24T20:21:42;9.80;99.90
28189;DHT22;15471;51.166;4.470;2023-03-24T20:29:46;9.70;99.90
28189;DHT22;15471;51.166;4.470;2023-03-24T20:32:14;9.60;99.90
28189;DHT22;15471;51.166;4.470;2023-03-24T20:34:41;9.50;99.90
28189;DHT22;15471;51.166;4.470;2023-03-24T20:37:06;9.50;99.90
28189;DHT22;15471;51.166;4.470;2023-03-24T20:39:33;9.40;99.90
28189;DHT22;15471;51.166;4.470;2023-03-24T20:41:58;9.40;99.90
28189;DHT22;15471;51.166;4.470;2023-03-24T20:44:25;9.30;99.90
28189;DHT22;15471;51.166;4.470;2023-03-24T21:28:19;9.30;99.90
28189;DHT22;15471;51.166;4.470;2023-03-24T21:30:57;9.30;99.90
28189;DHT22;15471;51.166;4.470;2023-03-24T21:33:33;9.40;99.90
28189;DHT22;15471;51.166;4.470;2023-03-24T21:36:10;9.40;99.90
28189;DHT22;15471;51.166;4.470;2023-03-24T21:38:40;9.50;99.90
28189;DHT22;15471;51.166;4.470;2023-03-24T21:41:06;9.50;99.90
28189;DHT22;15471;51.166;4.470;2023-03-24T21:43:33;9.50;99.90
28189;DHT22;15471;51.166;4.470;2023-03-24T21:46:00;9.50;99.90
28189;DHT22;15471;51.166;4.470;2023-03-24T21:48:28;9.50;99.90
28189;DHT22;15471;51.166;4.470;2023-03-24T21:50:55;9.60;99.90
28189;DHT22;15471;51.166;4.470;2023-03-24T21:53:23;9.60;99.90
28189;DHT22;15471;51.166;4.470;2023-03-24T21:55:52;9.60;99.90
28189;DHT22;15471;51.166;4.470;2023-03-24T21:58:19;9.60;99.90
28189;DHT22;15471;51.166;4.470;2023-03-24T22:00:46;9.50;99.90